Flight Track Log - Related Links

Times and Time Zones

All times are in EDT time to prevent confusion due to time zone crossing. See the ELJ613 flight status page for this flight to view local times or setup timezone preferences in your user account.

Time Position Orientation Groundspeed Altitude Reporting Facility
EDT Latitude Longitude Course Direction KTS MPH feet Rate Location/Type
Tue 03:04:48 PM 37.3033 -80.0097 293° West 188 216 3,000  Level Washington Center
Tue 03:05:48 PM 37.2861 -80.0792 253° West 234 269 5,800 3,508 Climbing Washington Center
Tue 03:06:46 PM 37.3192 -80.1439 303° West 223 257 9,900 3,529 Climbing Washington Center
Tue 03:07:47 PM 37.3503 -80.2058 302° West 211 243 12,800 2,607 Climbing Washington Center
Tue 03:08:48 PM 37.3772 -80.2622 301° West 211 243 15,200 2,231 Climbing Washington Center
Tue 03:09:48 PM 37.4081 -80.3269 301° West 211 243 17,300 1,831 Climbing Washington Center
Tue 03:10:00 PM 37.4651 -80.3452 293° West  Level FlightAware Approximate
Tue 03:10:46 PM 37.4389 -80.3942 300° West 211 243 18,800  Level Washington Center
Tue 03:11:46 PM 37.4694 -80.4617 300° West 216 249 20,500 1,794 Climbing Washington Center
Tue 03:14:10 PM 37.5617 -80.6467 302° West 257 296 24,900 1,806 Climbing Indianapolis Center
Tue 03:15:12 PM 37.5969 -80.7225 300° West 257 296 26,700 1,728 Climbing Indianapolis Center
Tue 03:16:15 PM 37.6306 -80.7969 300° West 253 291 28,500 1,584 Climbing Indianapolis Center
Tue 03:17:17 PM 37.6697 -80.8833 300° West 246 283 30,000 726 Climbing Indianapolis Center
Tue 03:18:19 PM 37.7075 -80.9639 301° West 266 306 30,000  Level Indianapolis Center
Tue 03:19:21 PM 37.7492 -81.0536 300° West 295 339 30,000  Level Indianapolis Center
Tue 03:20:23 PM 37.7964 -81.1653 298° West 308 354 30,000  Level Indianapolis Center
Tue 03:21:25 PM 37.8258 -81.2642 291° West 320 368 30,000  Level Indianapolis Center
Tue 03:22:27 PM 37.8583 -81.3708 291° West 322 371 30,000 -484 Level Indianapolis Center
Tue 03:23:29 PM 37.8911 -81.4756 292° West 321 369 29,000 -968 Descending Indianapolis Center
Tue 03:24:31 PM 37.9233 -81.5792 292° West 317 365 28,000 -484 Descending Indianapolis Center
Tue 03:25:33 PM 37.9603 -81.7022 291° West 311 358 28,000  Level Indianapolis Center
Tue 03:26:35 PM 37.9919 -81.8031 292° West 307 353 28,000  Level Indianapolis Center
Tue 03:27:37 PM 38.0222 -81.9044 291° West 307 353 28,000  Level Indianapolis Center
Tue 03:28:39 PM 38.0544 -82.0097 291° West 317 365 28,000  Level Indianapolis Center
Tue 03:29:41 PM 38.0847 -82.1122 291° West 311 358 28,000 -677 Level Indianapolis Center
Tue 03:30:43 PM 38.1172 -82.2175 291° West 319 367 26,600 -1,403 Descending Indianapolis Center
Tue 03:31:45 PM 38.1500 -82.3289 291° West 332 382 25,100 -1,645 Descending Indianapolis Center
Tue 03:32:47 PM 38.1903 -82.4594 291° West 331 381 23,200 -1,016 Descending Indianapolis Center
Tue 03:33:49 PM 38.2228 -82.5661 291° West 324 373 23,000 -96 Descending Indianapolis Center
Tue 03:34:52 PM 38.2539 -82.6686 291° West 318 366 23,000  Level Indianapolis Center
Tue 03:35:54 PM 38.2808 -82.7706 289° West 307 353 23,000  Level Indianapolis Center
Tue 03:36:56 PM 38.3111 -82.8722 291° West 307 353 23,000  Level Indianapolis Center
Tue 03:37:58 PM 38.3464 -82.9922 291° West 310 357 23,000  Level Indianapolis Center
Tue 03:39:00 PM 38.3769 -83.0972 290° West 316 364 23,000 -532 Level Indianapolis Center
Tue 03:40:02 PM 38.4078 -83.2036 290° West 319 367 21,900 -1,355 Descending Indianapolis Center
Tue 03:41:04 PM 38.4397 -83.3139 290° West 329 379 20,200 -1,645 Descending Indianapolis Center
Tue 03:42:06 PM 38.4697 -83.4181 290° West 317 365 18,500 -1,742 Descending Indianapolis Center
Tue 03:43:08 PM 38.5031 -83.5336 290° West 300 345 16,600 -1,742 Descending Indianapolis Center
Tue 03:44:10 PM 38.5303 -83.6308 290° West 294 338 14,900 -1,645 Descending Indianapolis Center
Tue 03:45:12 PM 38.5575 -83.7250 290° West 284 327 13,200 -1,355 Descending Indianapolis Center
Tue 03:46:14 PM 38.5831 -83.8169 290° West 275 316 12,100 -532 Descending Indianapolis Center
Tue 03:47:16 PM 38.6097 -83.9056 291° West 269 310 12,100 -48 Level Indianapolis Center
Tue 03:48:18 PM 38.6689 -83.9828 314° West 274 315 12,000 -290 Descending Indianapolis Center
Tue 03:49:20 PM 38.7342 -84.0283 331° Northwest 267 307 11,500 -968 Descending Indianapolis Center
Tue 03:50:22 PM 38.8028 -84.0586 341° North 262 302 10,000 -1,488 Descending Indianapolis Center
Tue 03:51:25 PM 38.8728 -84.0897 341° North 261 300 8,400 -1,488 Descending Indianapolis Center
Tue 03:52:27 PM 38.9414 -84.1214 340° North 261 300 6,900 -1,452 Descending Indianapolis Center
Tue 03:53:29 PM 39.0075 -84.1517 340° North 253 291 5,400 -1,403 Descending Indianapolis Center
Tue 03:54:31 PM 39.0569 -84.2114 317° Northwest 248 285 4,000 -1,113 Descending Indianapolis Center
Tue 03:55:33 PM 39.1033 -84.2789 312° West 236 272 3,100 -770 Descending Indianapolis Center
Tue 03:57:38 PM 39.1500 -84.3667 304° West 156 180 1,600 -670 Descending Cincinnati TRACON
Tue 03:58:32 PM 39.1333 -84.4000 237° Southwest 115 132 1,100 -556 Descending Cincinnati TRACON
Tue 04:00:00 PM 39.1000 -84.4167 322° Northwest  Level FlightAware Approximate

Login

Don't have an account? Register now (free) for customized features, flight alerts, and more!